Time;durP1;ratioP1;P1;durP2;ratioP2;P2;SDS_P1;SDS_P2;PMS_P1;PMS_P2;Temp;Humidity;BMP_temperature;BMP_pressure;BME280_temperature;BME280_humidity;BME280_pressure;Samples;Min_cycle;Max_cycle;Signal;HPM_P1;HPM_P2
2022/07/11 00:02:24;;;;;;;5.88;3.38;;;;;;;26.41;43.31;101336.78;5041296;28;20044;-48
2022/07/11 00:04:50;;;;;;;8.02;3.50;;;;;;;26.57;42.73;101343.63;5031614;23;20041;-51
2022/07/11 00:07:16;;;;;;;6.57;3.65;;;;;;;26.59;43.39;101333.16;5040588;28;20032;-50
2022/07/11 00:09:43;;;;;;;5.90;3.55;;;;;;;26.39;42.60;101333.50;5048897;28;20055;-50
2022/07/11 00:12:11;;;;;;;7.13;3.25;;;;;;;26.06;43.26;101338.97;5047932;28;20116;-49
2022/07/11 00:14:39;;;;;;;5.28;2.92;;;;;;;25.91;43.46;101322.72;5032725;28;20071;-51
2022/07/11 00:17:07;;;;;;;5.93;2.70;;;;;;;25.99;43.38;101322.06;5029602;28;20051;-45
2022/07/11 00:19:38;;;;;;;4.97;2.70;;;;;;;25.74;43.73;101323.25;5039584;28;20470;-44
2022/07/11 00:22:05;;;;;;;4.57;2.90;;;;;;;25.61;44.43;101309.44;5038920;28;20044;-49
2022/07/11 00:24:32;;;;;;;3.95;2.65;;;;;;;25.47;44.74;101318.38;5051820;28;20021;-48
2022/07/11 00:26:59;;;;;;;6.07;2.90;;;;;;;25.11;44.77;101315.28;5051913;28;20112;-47
2022/07/11 00:29:26;;;;;;;3.45;2.45;;;;;;;24.95;45.64;101317.34;5051676;28;20082;-51
2022/07/11 00:31:52;;;;;;;4.35;3.08;;;;;;;24.95;45.86;101309.13;5033898;28;20099;-47
2022/07/11 00:34:18;;;;;;;6.82;2.85;;;;;;;24.80;46.04;101303.81;5045991;28;20018;-50
2022/07/11 00:36:44;;;;;;;4.60;2.20;;;;;;;24.83;45.51;101299.69;5040759;28;20444;-51
2022/07/11 00:39:11;;;;;;;4.68;2.67;;;;;;;24.67;46.15;101307.25;5042715;28;20097;-50
2022/07/11 00:41:37;;;;;;;3.80;2.55;;;;;;;24.58;46.19;101311.72;5049586;28;20036;-49
2022/07/11 00:44:03;;;;;;;4.28;2.67;;;;;;;24.42;46.83;101300.91;5050430;28;20103;-48
2022/07/11 00:46:30;;;;;;;5.43;2.78;;;;;;;24.27;47.84;101303.75;5052566;28;20373;-49
2022/07/11 00:48:58;;;;;;;4.25;2.60;;;;;;;24.16;48.08;101304.94;5047159;28;20139;-51
2022/07/11 00:51:24;;;;;;;5.43;2.75;;;;;;;24.25;47.76;101300.47;5036560;28;20032;-50
2022/07/11 00:53:53;;;;;;;3.65;2.50;;;;;;;24.26;47.60;101296.63;5050458;28;20029;-51
2022/07/11 00:56:23;;;;;;;3.78;2.45;;;;;;;24.41;47.39;101295.72;5037586;28;20031;-51
2022/07/11 00:58:50;;;;;;;4.63;2.67;;;;;;;24.12;47.67;101295.66;5051928;28;20017;-50
2022/07/11 01:01:18;;;;;;;2.80;2.50;;;;;;;24.32;47.96;101289.19;5051661;28;20029;-50
2022/07/11 01:03:45;;;;;;;4.78;2.90;;;;;;;24.30;46.80;101292.22;5051126;28;20025;-50
2022/07/11 01:06:12;;;;;;;6.10;3.20;;;;;;;24.21;47.72;101283.84;5052041;28;20063;-49
2022/07/11 01:08:39;;;;;;;3.05;2.60;;;;;;;24.06;48.00;101292.16;5051901;28;20047;-48
2022/07/11 01:11:18;;;;;;;4.80;3.13;;;;;;;23.98;48.46;101290.03;5045888;28;20079;-50
2022/07/11 01:13:46;;;;;;;4.72;3.35;;;;;;;23.95;48.56;101283.22;5051529;28;20032;-50
2022/07/11 01:16:13;;;;;;;6.22;3.22;;;;;;;23.87;49.36;101277.53;5049820;28;20029;-47
2022/07/11 01:18:41;;;;;;;3.83;2.78;;;;;;;23.90;49.06;101271.50;5051870;28;20068;-49
2022/07/11 01:21:18;;;;;;;4.65;3.25;;;;;;;23.66;49.14;101282.34;5045011;28;20043;-51
2022/07/11 01:23:48;;;;;;;3.50;2.88;;;;;;;23.38;49.48;101273.72;5051242;28;20035;-47
2022/07/11 01:26:16;;;;;;;3.60;3.25;;;;;;;23.14;50.03;101268.06;5051784;28;20082;-48
2022/07/11 01:28:44;;;;;;;5.05;3.47;;;;;;;22.97;50.60;101267.59;5051595;28;20040;-50
2022/07/11 01:31:12;;;;;;;4.75;3.15;;;;;;;22.75;51.00;101264.38;5051587;28;20029;-49
2022/07/11 01:33:39;;;;;;;4.60;3.03;;;;;;;22.88;51.54;101267.38;5051347;28;20393;-47
2022/07/11 01:36:06;;;;;;;4.78;3.38;;;;;;;22.77;51.26;101256.75;5051882;28;20029;-50
2022/07/11 01:38:32;;;;;;;6.18;3.28;;;;;;;22.69;51.36;101262.75;5051712;28;20017;-47
2022/07/11 01:40:58;;;;;;;3.65;2.83;;;;;;;22.51;52.39;101256.78;5051391;28;20051;-48
2022/07/11 01:43:25;;;;;;;6.90;3.10;;;;;;;22.43;51.96;101259.25;5051511;28;20477;-49
2022/07/11 01:45:55;;;;;;;5.15;3.30;;;;;;;22.44;52.44;101263.63;5051508;28;20036;-49
2022/07/11 01:48:21;;;;;;;3.53;2.90;;;;;;;22.57;52.24;101252.94;5051927;28;20021;-51
2022/07/11 01:50:49;;;;;;;3.92;2.90;;;;;;;22.65;51.99;101255.13;5051186;28;20477;-47
2022/07/11 01:53:16;;;;;;;3.58;2.92;;;;;;;22.65;52.02;101262.47;5051313;28;20890;-50
2022/07/11 01:55:43;;;;;;;3.30;2.75;;;;;;;22.86;51.20;101264.06;5051671;28;20021;-48
2022/07/11 01:58:10;;;;;;;4.28;2.58;;;;;;;22.99;50.91;101257.25;5051206;28;20021;-51
2022/07/11 02:00:36;;;;;;;3.13;2.83;;;;;;;22.97;50.78;101256.69;5051249;28;20021;-50
2022/07/11 02:03:03;;;;;;;3.20;2.90;;;;;;;22.71;51.09;101261.41;5051541;28;20025;-47
2022/07/11 02:05:29;;;;;;;3.88;2.75;;;;;;;22.89;50.54;101257.28;5051192;28;20559;-51
2022/07/11 02:08:13;;;;;;;2.97;2.53;;;;;;;22.77;51.06;101256.75;5051466;28;20108;-51
2022/07/11 02:10:41;;;;;;;4.50;2.00;;;;;;;23.12;50.05;101250.34;5050859;28;20036;-51
2022/07/11 02:13:09;;;;;;;2.78;1.92;;;;;;;23.22;49.41;101244.03;5051432;28;20029;-50
2022/07/11 02:15:35;;;;;;;2.83;2.25;;;;;;;23.11;49.69;101243.25;5054450;28;20029;-51
2022/07/11 02:18:02;;;;;;;4.25;2.05;;;;;;;23.09;49.35;101251.72;5054994;28;20029;-50
2022/07/11 02:20:28;;;;;;;3.40;1.75;;;;;;;23.05;49.37;101247.13;5054882;28;20477;-49
2022/07/11 02:22:56;;;;;;;2.30;1.90;;;;;;;22.98;49.20;101246.56;5052539;28;20028;-51
2022/07/11 02:25:22;;;;;;;2.58;1.90;;;;;;;23.00;49.01;101247.94;5053800;28;20366;-47
2022/07/11 02:27:49;;;;;;;2.42;1.83;;;;;;;22.70;49.54;101248.81;5054811;28;20025;-49
2022/07/11 02:30:18;;;;;;;2.17;1.70;;;;;;;22.84;49.63;101238.97;5036702;28;20056;-50
2022/07/11 02:32:45;;;;;;;3.38;1.85;;;;;;;22.89;49.29;101238.97;5054311;28;20029;-47
2022/07/11 02:35:11;;;;;;;3.03;2.30;;;;;;;22.80;49.46;101248.78;5054572;28;20036;-49
2022/07/11 02:37:37;;;;;;;2.30;1.75;;;;;;;22.97;49.14;101239.50;5054659;28;20443;-47
2022/07/11 02:40:04;;;;;;;2.50;1.65;;;;;;;22.85;49.27;101240.59;5054334;28;20021;-51
2022/07/11 02:42:30;;;;;;;1.83;1.50;;;;;;;22.84;49.28;101232.69;5054159;28;20386;-51
2022/07/11 02:44:56;;;;;;;2.17;1.55;;;;;;;22.87;48.94;101232.97;5054559;28;20052;-50
2022/07/11 02:47:23;;;;;;;3.35;1.67;;;;;;;22.59;49.58;101233.56;5054371;28;20037;-46
2022/07/11 02:49:50;;;;;;;3.60;1.80;;;;;;;22.00;51.42;101239.63;5041750;28;20030;-50
2022/07/11 02:52:16;;;;;;;2.85;2.03;;;;;;;21.98;50.93;101226.25;5048868;28;20029;-49
2022/07/11 02:54:42;;;;;;;3.45;1.73;;;;;;;22.12;50.99;101234.75;5053912;28;20107;-47
2022/07/11 02:57:09;;;;;;;3.15;1.77;;;;;;;21.80;51.90;101235.78;5054291;28;20021;-49
2022/07/11 02:59:35;;;;;;;3.45;2.03;;;;;;;21.57;52.00;101237.13;5053162;28;20075;-48
2022/07/11 03:02:04;;;;;;;2.97;2.00;;;;;;;21.02;53.25;101229.59;5053819;28;20071;-50
2022/07/11 03:04:34;;;;;;;3.70;2.35;;;;;;;20.62;54.79;101231.03;5053766;28;20401;-49
2022/07/11 03:07:00;;;;;;;3.60;2.47;;;;;;;20.36;55.63;101235.44;5053851;28;20032;-46
2022/07/11 03:09:26;;;;;;;2.88;2.40;;;;;;;20.06;56.53;101241.50;5053692;28;20031;-50
2022/07/11 03:11:52;;;;;;;2.63;2.13;;;;;;;19.71;57.84;101225.69;5053762;28;20477;-49
2022/07/11 03:14:19;;;;;;;3.35;2.47;;;;;;;19.51;58.30;101227.09;5054054;28;20108;-47
2022/07/11 03:16:45;;;;;;;7.57;3.42;;;;;;;19.17;59.57;101229.16;5053965;28;20032;-50
2022/07/11 03:19:11;;;;;;;3.90;2.67;;;;;;;18.98;60.17;101233.25;5053522;28;20025;-47
2022/07/11 03:21:37;;;;;;;5.25;3.17;;;;;;;18.70;61.28;101232.38;5053641;28;20045;-50
2022/07/11 03:24:04;;;;;;;5.72;2.97;;;;;;;18.47;62.30;101227.13;5053805;28;20063;-47
2022/07/11 03:26:30;;;;;;;6.82;2.90;;;;;;;18.29;62.70;101224.69;5052948;28;20070;-47
2022/07/11 03:28:56;;;;;;;6.43;3.25;;;;;;;18.13;63.54;101229.06;5053558;28;20412;-49
2022/07/11 03:31:22;;;;;;;4.80;3.60;;;;;;;18.08;63.53;101221.66;5053901;28;20032;-46
2022/07/11 03:33:49;;;;;;;5.88;2.90;;;;;;;17.84;64.12;101225.59;5053340;28;20032;-50
2022/07/11 03:36:15;;;;;;;6.38;3.78;;;;;;;17.84;64.50;101236.44;5041424;28;20501;-48
2022/07/11 03:38:41;;;;;;;6.57;3.63;;;;;;;17.60;65.49;101231.13;5039527;28;20051;-46
2022/07/11 03:41:07;;;;;;;8.18;3.97;;;;;;;17.57;65.63;101239.72;5053253;28;20037;-47
2022/07/11 03:43:33;;;;;;;8.13;3.33;;;;;;;17.40;66.13;101236.16;5043214;28;20032;-49
2022/07/11 03:46:00;;;;;;;9.00;3.90;;;;;;;17.23;67.27;101238.78;5050462;28;20036;-47
2022/07/11 03:48:26;;;;;;;8.23;3.72;;;;;;;17.25;67.58;101249.38;5043847;28;20474;-46
2022/07/11 03:50:52;;;;;;;8.32;3.90;;;;;;;17.28;67.31;101247.00;5050746;28;20074;-47
2022/07/11 03:53:18;;;;;;;7.80;4.40;;;;;;;17.09;67.71;101245.53;5052651;28;20040;-49
2022/07/11 03:55:44;;;;;;;9.27;4.00;;;;;;;17.01;68.23;101248.63;5053184;28;20025;-48
2022/07/11 03:58:10;;;;;;;10.07;4.50;;;;;;;17.05;67.63;101257.91;5053074;28;20389;-46
2022/07/11 04:00:37;;;;;;;8.30;4.40;;;;;;;16.94;68.00;101259.56;5052843;28;20028;-46
2022/07/11 04:03:03;;;;;;;9.48;4.15;;;;;;;16.74;68.93;101259.13;5052782;28;20043;-50
2022/07/11 04:05:29;;;;;;;13.77;4.00;;;;;;;16.64;69.67;101256.97;5050594;28;20045;-48
2022/07/11 04:07:57;;;;;;;20.88;5.20;;;;;;;16.43;70.39;101261.06;5052864;28;20033;-46
2022/07/11 04:10:24;;;;;;;9.90;4.40;;;;;;;16.52;69.94;101259.69;5033186;28;20566;-49
2022/07/11 04:12:50;;;;;;;9.23;4.07;;;;;;;16.55;69.93;101258.41;5052571;28;20159;-46
2022/07/11 04:15:16;;;;;;;14.85;5.07;;;;;;;16.39;70.06;101249.13;5050409;28;20033;-47
2022/07/11 04:17:42;;;;;;;18.52;5.63;;;;;;;16.39;69.95;101257.22;5050648;28;20028;-49
2022/07/11 04:20:09;;;;;;;15.05;4.78;;;;;;;16.24;70.78;101257.66;5052577;28;20025;-49
2022/07/11 04:22:35;;;;;;;12.57;5.15;;;;;;;16.30;70.99;101272.13;5050996;28;20021;-50
2022/07/11 04:25:01;;;;;;;13.25;5.40;;;;;;;16.29;70.62;101270.47;5050884;28;20029;-46
2022/07/11 04:27:29;;;;;;;18.85;5.28;;;;;;;16.35;70.28;101273.06;5052546;28;20473;-49
2022/07/11 04:29:55;;;;;;;17.88;5.88;;;;;;;16.29;70.71;101275.88;5051121;28;20143;-46
2022/07/11 04:32:21;;;;;;;15.55;5.57;;;;;;;16.21;70.79;101278.91;5052694;28;20033;-50
2022/07/11 04:34:48;;;;;;;16.23;5.97;;;;;;;16.14;71.05;101279.03;5050188;28;20103;-47
2022/07/11 04:37:14;;;;;;;20.67;5.72;;;;;;;16.08;71.15;101280.78;5051867;28;20075;-47
2022/07/11 04:39:40;;;;;;;16.63;5.75;;;;;;;16.06;71.06;101282.91;5049711;28;20036;-47
2022/07/11 04:42:06;;;;;;;21.13;5.60;;;;;;;15.98;71.26;101288.59;5052238;28;20039;-46
2022/07/11 04:44:35;;;;;;;23.88;6.20;;;;;;;16.01;71.00;101290.03;5050417;28;20056;-49
2022/07/11 04:47:02;;;;;;;17.90;6.15;;;;;;;15.95;71.28;101290.97;5052385;28;20027;-49
2022/07/11 04:49:29;;;;;;;15.93;5.43;;;;;;;15.85;71.45;101286.13;5048817;28;20061;-47
2022/07/11 04:51:57;;;;;;;19.30;5.95;;;;;;;15.83;71.76;101294.44;5052118;28;20358;-49
2022/07/11 04:54:23;;;;;;;20.80;7.22;;;;;;;15.85;71.70;101296.91;5046148;28;20029;-48
2022/07/11 04:56:50;;;;;;;21.30;5.28;;;;;;;15.79;71.44;101295.13;5051920;28;20113;-49
2022/07/11 04:59:16;;;;;;;24.50;6.05;;;;;;;15.87;71.34;101296.69;5042603;28;20033;-48
2022/07/11 05:01:42;;;;;;;25.65;6.68;;;;;;;15.81;71.69;101303.81;5036463;28;20469;-46
2022/07/11 05:04:08;;;;;;;19.83;6.55;;;;;;;15.82;71.39;101297.34;5044947;28;20536;-48
2022/07/11 05:06:34;;;;;;;19.15;6.47;;;;;;;15.75;71.65;101307.44;5071891;28;20029;-49
2022/07/11 05:09:01;;;;;;;26.45;6.25;;;;;;;15.79;71.33;101304.06;5058194;28;20108;-47
2022/07/11 05:11:27;;;;;;;26.50;6.65;;;;;;;15.78;71.51;101304.28;5031230;28;20026;-46
2022/07/11 05:13:53;;;;;;;25.60;6.30;;;;;;;15.67;71.86;101300.50;5028161;28;20083;-47
2022/07/11 05:16:19;;;;;;;19.42;6.05;;;;;;;15.66;71.95;101304.25;5033985;28;20052;-47
2022/07/11 05:18:45;;;;;;;23.13;6.85;;;;;;;15.57;72.30;101303.69;5045801;28;20068;-47
2022/07/11 05:21:12;;;;;;;19.70;6.03;;;;;;;15.56;72.54;101299.34;5051648;28;20547;-46
2022/07/11 05:23:38;;;;;;;19.48;5.38;;;;;;;15.56;72.49;101303.94;5050280;28;20033;-49
2022/07/11 05:26:04;;;;;;;22.48;6.75;;;;;;;15.53;72.52;101299.78;5051928;28;20481;-46
2022/07/11 05:28:30;;;;;;;27.17;6.57;;;;;;;15.62;72.35;101302.19;5038073;28;20034;-48
2022/07/11 05:30:57;;;;;;;21.40;6.35;;;;;;;15.62;71.89;101297.63;5030354;28;20029;-49
2022/07/11 05:33:23;;;;;;;20.52;6.70;;;;;;;15.45;72.30;101294.72;5032838;28;20553;-48
2022/07/11 05:35:49;;;;;;;17.90;6.80;;;;;;;15.55;72.07;101303.13;5051495;28;20025;-48
2022/07/11 05:38:15;;;;;;;18.17;5.72;;;;;;;15.44;72.54;101301.19;5045621;28;20473;-45
2022/07/11 05:40:41;;;;;;;23.13;6.30;;;;;;;15.49;72.37;101300.47;5032189;28;20033;-47
2022/07/11 05:43:08;;;;;;;19.92;6.30;;;;;;;15.47;72.31;101298.00;5032586;28;20088;-48
2022/07/11 05:45:34;;;;;;;23.30;7.57;;;;;;;15.42;72.67;101294.34;5046459;28;20362;-49
2022/07/11 05:48:00;;;;;;;23.90;6.35;;;;;;;15.49;72.06;101295.94;5049518;28;20021;-47
2022/07/11 05:50:26;;;;;;;27.85;6.90;;;;;;;15.37;72.00;101299.59;5037774;28;20026;-49
2022/07/11 05:52:53;;;;;;;23.65;6.45;;;;;;;15.49;71.46;101290.53;5036473;28;20048;-46
2022/07/11 05:55:19;;;;;;;16.05;5.50;;;;;;;15.53;71.33;101291.69;5035994;28;20121;-47
2022/07/11 05:57:45;;;;;;;22.17;5.88;;;;;;;15.59;70.97;101293.50;5035435;28;20401;-49
2022/07/11 06:00:12;;;;;;;21.30;5.95;;;;;;;15.59;71.10;101289.97;5034912;28;20018;-49
2022/07/11 06:02:38;;;;;;;24.80;6.65;;;;;;;15.69;70.88;101292.16;5053207;28;20029;-49
2022/07/11 06:05:05;;;;;;;28.60;6.47;;;;;;;15.65;71.06;101282.88;5053604;28;20493;-46
2022/07/11 06:10:16;;;;;;;24.30;6.32;;;;;;;15.71;71.46;101287.34;5058124;28;20067;-46
2022/07/11 06:12:43;;;;;;;32.15;7.25;;;;;;;15.52;72.03;101281.97;5054955;28;20024;-47
2022/07/11 06:15:11;;;;;;;24.70;6.65;;;;;;;15.54;71.73;101279.03;5053081;28;20037;-48
2022/07/11 06:17:37;;;;;;;22.02;5.97;;;;;;;15.66;71.57;101276.44;5052362;28;20025;-48
2022/07/11 06:20:03;;;;;;;21.65;6.35;;;;;;;15.66;71.48;101289.94;5054941;28;20116;-46
2022/07/11 06:22:29;;;;;;;24.08;6.72;;;;;;;15.67;71.60;101283.47;5053421;28;20441;-49
2022/07/11 06:24:56;;;;;;;22.38;5.53;;;;;;;15.61;71.49;101269.00;5054860;28;20078;-49
2022/07/11 06:27:22;;;;;;;26.08;6.93;;;;;;;15.64;71.72;101273.13;5053515;28;20032;-48
2022/07/11 06:29:48;;;;;;;28.35;6.97;;;;;;;15.55;72.07;101265.34;5054628;28;20564;-48
2022/07/11 06:32:14;;;;;;;28.55;6.60;;;;;;;15.61;71.99;101269.00;5052005;28;20033;-46
2022/07/11 06:34:40;;;;;;;25.63;7.18;;;;;;;15.63;71.95;101268.78;5049962;28;20017;-47
2022/07/11 06:37:07;;;;;;;22.77;6.35;;;;;;;15.65;71.74;101275.59;5036041;28;20029;-49
2022/07/11 06:39:33;;;;;;;21.55;6.18;;;;;;;15.66;71.36;101265.66;5054719;28;20037;-48
2022/07/11 06:41:59;;;;;;;23.65;6.20;;;;;;;15.72;71.67;101270.13;5053167;28;20040;-49
2022/07/11 06:44:26;;;;;;;29.48;6.95;;;;;;;15.64;72.00;101262.34;5054620;28;20383;-47
2022/07/11 06:46:52;;;;;;;20.10;6.60;;;;;;;15.64;72.06;101262.34;5053044;28;20025;-48
2022/07/11 06:49:18;;;;;;;28.27;6.63;;;;;;;15.70;71.90;101262.22;5053392;28;20131;-50
2022/07/11 06:51:44;;;;;;;22.17;5.65;;;;;;;15.67;71.99;101251.91;5054296;28;20028;-47
2022/07/11 06:54:10;;;;;;;24.08;5.65;;;;;;;15.68;72.23;101255.44;5052537;28;20079;-48
2022/07/11 06:56:37;;;;;;;18.23;6.30;;;;;;;15.74;72.12;101255.34;5054230;28;20040;-49
2022/07/11 06:59:03;;;;;;;24.52;6.57;;;;;;;15.73;72.11;101247.47;5052674;28;20033;-46
2022/07/11 07:01:29;;;;;;;22.48;5.95;;;;;;;15.74;72.20;101243.72;5051338;28;20039;-46
2022/07/11 07:03:55;;;;;;;20.80;5.53;;;;;;;15.81;71.95;101242.56;5054045;28;20066;-48
2022/07/11 07:06:22;;;;;;;32.85;6.97;;;;;;;15.71;72.36;101236.06;5051664;28;20064;-49
2022/07/11 07:08:48;;;;;;;23.35;6.63;;;;;;;15.74;72.42;101241.84;5053857;28;20107;-50
2022/07/11 07:11:14;;;;;;;23.60;5.95;;;;;;;15.78;72.19;101244.91;5052561;28;20389;-47
2022/07/11 07:13:40;;;;;;;24.65;5.95;;;;;;;15.82;71.59;101244.22;5053994;28;20049;-46
2022/07/11 07:16:07;;;;;;;28.02;5.93;;;;;;;15.78;72.02;101244.91;5052361;28;20024;-47
2022/07/11 07:18:33;;;;;;;27.50;6.32;;;;;;;15.68;72.34;101242.75;5053890;28;20041;-46
2022/07/11 07:20:59;;;;;;;23.13;6.22;;;;;;;15.78;72.10;101247.63;5051446;28;20081;-49
2022/07/11 07:23:25;;;;;;;21.10;6.45;;;;;;;15.67;72.54;101245.69;5053867;28;20033;-49
2022/07/11 07:25:52;;;;;;;24.02;6.60;;;;;;;15.73;72.36;101242.06;5052279;28;20506;-47
2022/07/11 07:28:18;;;;;;;25.23;6.30;;;;;;;15.75;72.18;101248.06;5053773;28;20021;-46
2022/07/11 07:30:45;;;;;;;26.45;5.82;;;;;;;15.65;72.51;101239.69;5050499;28;20384;-49
2022/07/11 07:33:12;;;;;;;23.23;6.35;;;;;;;15.62;72.54;101237.44;5053802;28;20036;-49
2022/07/11 07:35:39;;;;;;;24.83;6.93;;;;;;;15.69;72.43;101236.31;5052055;28;20041;-49
2022/07/11 07:38:05;;;;;;;23.45;6.60;;;;;;;15.52;72.92;101248.78;5053488;28;20056;-49
2022/07/11 07:40:31;;;;;;;21.83;5.97;;;;;;;15.66;72.61;101246.75;5051707;28;20024;-50
2022/07/11 07:42:57;;;;;;;24.50;6.38;;;;;;;15.71;72.25;101238.78;5053391;28;20036;-49
2022/07/11 07:45:24;;;;;;;23.25;6.00;;;;;;;15.62;72.30;101230.16;5051649;28;20469;-49
2022/07/11 07:47:50;;;;;;;23.02;6.90;;;;;;;15.68;72.19;101223.88;5053367;28;20047;-47
2022/07/11 07:50:17;;;;;;;27.58;6.55;;;;;;;15.51;72.89;101218.28;5051942;28;20057;-47
2022/07/11 07:52:43;;;;;;;27.20;6.63;;;;;;;15.44;73.17;101220.25;5053109;28;20074;-49
2022/07/11 07:55:09;;;;;;;28.40;6.07;;;;;;;15.51;72.88;101225.56;5050810;28;20032;-48
2022/07/11 07:57:35;;;;;;;28.73;6.93;;;;;;;15.43;73.23;101215.06;5051561;28;20049;-45
2022/07/11 08:02:50;;;;;;;26.52;6.57;;;;;;;15.36;73.77;101214.34;5052140;28;20068;-48
2022/07/11 08:05:18;;;;;;;24.05;6.88;;;;;;;15.36;73.77;101217.03;5051303;28;20049;-46
2022/07/11 08:07:44;;;;;;;20.98;6.40;;;;;;;15.46;73.23;101210.03;5053000;28;20028;-46
2022/07/11 08:10:11;;;;;;;23.17;6.78;;;;;;;15.45;73.50;101205.72;5050276;28;20021;-49
2022/07/11 08:12:37;;;;;;;23.88;6.20;;;;;;;15.41;73.43;101209.91;5034550;28;20481;-50
2022/07/11 08:15:04;;;;;;;23.73;6.60;;;;;;;15.40;73.86;101204.75;5051265;28;20025;-46
2022/07/11 08:17:30;;;;;;;27.77;6.63;;;;;;;15.34;74.01;101209.19;5051432;28;20033;-49
2022/07/11 08:19:56;;;;;;;25.98;6.82;;;;;;;15.26;74.25;101202.22;5052562;28;20461;-49
2022/07/11 08:22:23;;;;;;;23.95;6.85;;;;;;;15.35;73.69;101197.34;5052374;28;20089;-46
2022/07/11 08:24:49;;;;;;;25.27;7.18;;;;;;;15.28;74.50;101207.41;5034265;28;20082;-49
2022/07/11 08:27:15;;;;;;;23.42;6.13;;;;;;;15.41;73.75;101207.22;5052644;28;20389;-45
2022/07/11 08:29:41;;;;;;;23.73;6.75;;;;;;;15.43;73.81;101190.78;5051081;28;20091;-48
2022/07/11 08:32:07;;;;;;;21.15;6.18;;;;;;;15.42;73.83;101192.66;5052392;28;20390;-47
2022/07/11 08:34:34;;;;;;;23.77;6.43;;;;;;;15.51;73.67;101191.28;5050987;28;20029;-49
2022/07/11 08:37:00;;;;;;;27.05;6.30;;;;;;;15.61;73.34;101195.31;5044507;28;20076;-49
2022/07/11 08:39:26;;;;;;;19.92;6.35;;;;;;;15.62;73.25;101188.88;5044938;28;20021;-46
2022/07/11 08:41:54;;;;;;;31.40;6.80;;;;;;;15.54;73.60;101185.41;5043979;28;20056;-45
2022/07/11 08:44:20;;;;;;;25.10;7.15;;;;;;;15.59;73.43;101180.16;5044295;28;20055;-48
2022/07/11 08:46:48;;;;;;;25.88;6.55;;;;;;;15.51;73.74;101183.19;5052173;28;20064;-49
2022/07/11 08:49:14;;;;;;;25.67;6.05;;;;;;;15.42;74.08;101176.47;5050156;28;20032;-48
2022/07/11 08:51:42;;;;;;;22.67;5.82;;;;;;;15.41;74.34;101182.94;5050415;28;20039;-45
2022/07/11 08:54:08;;;;;;;27.42;6.43;;;;;;;15.47;74.13;101176.63;5042969;28;20117;-49
2022/07/11 08:56:35;;;;;;;22.13;6.30;;;;;;;15.51;73.88;101183.19;5032288;28;20022;-50
2022/07/11 08:59:02;;;;;;;25.85;6.65;;;;;;;15.49;74.09;101179.06;5051492;28;20115;-46
2022/07/11 09:01:34;;;;;;;28.95;6.63;;;;;;;15.39;74.36;101181.53;5049211;28;20032;-50
2022/07/11 09:04:01;;;;;;;24.17;5.90;;;;;;;15.38;74.45;101178.00;5050614;28;20049;-49
2022/07/11 09:06:28;;;;;;;24.38;6.35;;;;;;;15.50;74.31;101180.75;5031112;28;20451;-49
2022/07/11 09:09:00;;;;;;;27.58;6.40;;;;;;;15.45;74.38;101167.13;5051456;28;20021;-49
2022/07/11 09:11:27;;;;;;;20.80;7.20;;;;;;;15.48;74.41;101169.34;5050045;28;20354;-49
2022/07/11 09:13:53;;;;;;;22.95;6.93;;;;;;;15.39;74.50;101168.03;5050538;28;20103;-49
2022/07/11 09:16:19;;;;;;;30.55;6.63;;;;;;;15.28;75.04;101164.25;5050177;28;20043;-46
2022/07/11 09:18:46;;;;;;;24.23;7.03;;;;;;;15.24;75.60;101158.47;5051392;28;20029;-46
2022/07/11 09:26:48;;;;;;;20.10;6.53;;;;;;;15.23;75.60;101156.03;5053690;28;20052;-46
2022/07/11 09:29:17;;;;;;;31.83;7.80;;;;;;;15.20;76.04;101156.47;5055442;28;20035;-49
2022/07/11 09:31:47;;;;;;;29.65;7.50;;;;;;;15.10;75.97;101143.53;5037324;28;20037;-49
2022/07/11 09:34:18;;;;;;;25.38;6.68;;;;;;;15.13;76.25;101147.66;5049120;28;20045;-49
2022/07/11 09:36:47;;;;;;;29.10;6.38;;;;;;;15.05;76.61;101141.53;5055336;28;20580;-48
2022/07/11 09:39:18;;;;;;;30.60;7.47;;;;;;;15.15;75.90;101140.97;5046262;28;20033;-50
2022/07/11 09:41:46;;;;;;;17.48;5.63;;;;;;;15.13;76.12;101144.97;5053545;28;20028;-46
2022/07/11 09:44:18;;;;;;;23.30;6.60;;;;;;;15.19;75.97;101136.78;5054133;28;20064;-49
2022/07/11 09:46:47;;;;;;;24.55;6.75;;;;;;;15.12;76.48;101144.13;5055512;28;20053;-46
2022/07/11 09:49:14;;;;;;;35.17;7.78;;;;;;;14.99;77.02;101139.75;5052963;28;20079;-48
2022/07/11 09:51:41;;;;;;;23.45;7.00;;;;;;;15.14;76.81;101133.13;5039346;28;20381;-49
2022/07/11 09:54:09;;;;;;;27.85;6.85;;;;;;;15.12;76.39;101125.28;5055411;28;20436;-48
2022/07/11 09:56:42;;;;;;;31.30;6.45;;;;;;;15.01;77.11;101126.88;5052661;28;20048;-50
2022/07/11 09:59:10;;;;;;;31.63;7.45;;;;;;;15.05;76.93;101119.16;5051895;28;20619;-47
2022/07/11 10:01:37;;;;;;;30.85;8.07;;;;;;;14.90;77.71;101116.84;5048894;28;20021;-45
2022/07/11 10:04:08;;;;;;;25.00;7.10;;;;;;;14.93;77.72;101115.56;5041520;28;20111;-47
2022/07/11 10:06:36;;;;;;;35.25;7.45;;;;;;;14.95;77.44;101114.31;5053915;28;20037;-49
2022/07/11 10:09:04;;;;;;;23.45;6.25;;;;;;;14.86;78.14;101109.44;5048191;28;20025;-48
2022/07/11 10:11:35;;;;;;;30.13;7.18;;;;;;;15.01;77.60;101108.00;5054879;28;20495;-46
2022/07/11 10:14:03;;;;;;;23.63;6.45;;;;;;;14.98;77.68;101104.94;5054547;28;20137;-45
2022/07/11 10:16:32;;;;;;;28.98;7.93;;;;;;;15.02;77.68;101108.81;5055050;28;20437;-49
2022/07/11 10:19:43;;;;;;;29.45;6.35;;;;;;;14.86;78.10;101107.56;5054507;28;20292;-50
2022/07/11 10:22:18;;;;;;;20.10;7.18;;;;;;;14.91;78.00;101105.03;5053992;28;20032;-48
2022/07/11 10:25:10;;;;;;;28.52;7.07;;;;;;;14.84;78.44;101098.91;5054531;28;20067;-46
2022/07/11 10:28:00;;;;;;;27.40;7.93;;;;;;;14.75;79.26;101100.25;5054638;28;20025;-45
2022/07/11 10:30:48;;;;;;;30.85;7.40;;;;;;;14.78;79.11;101099.81;5054260;28;20163;-48
2022/07/11 10:33:16;;;;;;;24.17;6.78;;;;;;;14.88;78.84;101100.09;5037114;28;20067;-48
2022/07/11 10:35:47;;;;;;;30.17;7.07;;;;;;;14.81;79.37;101104.75;5054085;28;20044;-47
2022/07/11 10:38:14;;;;;;;36.85;7.07;;;;;;;14.93;78.64;101092.13;5052823;28;20401;-48
2022/07/11 10:40:57;;;;;;;31.75;7.25;;;;;;;14.81;79.02;101091.25;5054454;28;20429;-48
2022/07/11 10:43:38;;;;;;;28.08;7.85;;;;;;;14.94;78.74;101079.50;5053739;28;20095;-47
2022/07/11 10:46:09;;;;;;;25.35;7.18;;;;;;;14.93;78.39;101094.81;5054606;28;20037;-48
2022/07/11 10:49:01;;;;;;;30.83;7.60;;;;;;;14.86;78.89;101086.00;5053585;28;20037;-46
2022/07/11 10:51:42;;;;;;;33.33;6.93;;;;;;;14.84;79.58;101085.44;5054162;28;20052;-50
2022/07/11 10:54:51;;;;;;;24.83;6.78;;;;;;;14.87;79.12;101084.13;5053621;28;20039;-47
2022/07/11 10:57:26;;;;;;;35.30;7.10;;;;;;;14.84;79.41;101080.03;5036671;28;20033;-49
2022/07/11 11:00:05;;;;;;;20.23;6.95;;;;;;;14.85;79.42;101089.75;5053675;28;20362;-48
2022/07/11 11:02:51;;;;;;;23.73;6.68;;;;;;;14.87;79.21;101084.97;5053785;28;20567;-46
2022/07/11 11:05:42;;;;;;;26.25;7.22;;;;;;;14.70;80.05;101083.94;5053473;28;20045;-46
2022/07/11 11:08:35;;;;;;;28.75;7.63;;;;;;;14.78;80.12;101087.16;5053738;28;20048;-46
2022/07/11 11:11:22;;;;;;;35.70;7.53;;;;;;;14.68;81.00;101080.66;5053821;28;20029;-47
2022/07/11 11:14:18;;;;;;;30.67;6.95;;;;;;;14.77;80.36;101077.44;5032461;28;20043;-45
2022/07/11 11:16:46;;;;;;;27.23;8.25;;;;;;;14.72;80.46;101082.69;5049497;28;20535;-48
2022/07/11 11:19:48;;;;;;;33.17;7.55;;;;;;;14.71;80.87;101077.50;5053324;28;20450;-48
2022/07/11 11:22:19;;;;;;;27.38;7.18;;;;;;;14.65;80.54;101081.94;5053336;28;20024;-48
2022/07/11 11:24:47;;;;;;;24.50;7.05;;;;;;;14.67;80.61;101079.03;5053303;28;20059;-46
2022/07/11 11:27:24;;;;;;;30.30;7.72;;;;;;;14.77;80.86;101084.72;5053405;28;20021;-48
2022/07/11 11:29:56;;;;;;;33.92;8.40;;;;;;;14.74;80.93;101085.16;5049195;28;20024;-46
2022/07/11 11:32:29;;;;;;;26.20;7.60;;;;;;;14.81;80.57;101083.19;5052223;28;20025;-45
2022/07/11 11:34:56;;;;;;;32.63;7.28;;;;;;;14.81;80.27;101088.56;5056496;23;20053;-47
2022/07/11 11:37:24;;;;;;;33.85;7.15;;;;;;;14.77;80.69;101101.69;5013319;28;20113;-46